createdAt,value
2019-03-23T00:00:41.522Z,6.28
2019-03-23T00:01:41.536Z,6.28
2019-03-23T00:02:41.555Z,6.34
2019-03-23T00:03:41.564Z,6.26
2019-03-23T00:04:41.580Z,6.31
2019-03-23T00:05:41.594Z,6.34
2019-03-23T00:06:41.610Z,6.22
2019-03-23T00:07:41.624Z,6.28
2019-03-23T00:08:41.640Z,6.29
2019-03-23T00:09:41.655Z,6.22
2019-03-23T00:10:41.668Z,6.29
2019-03-23T00:11:41.701Z,6.28
2019-03-23T00:12:41.696Z,6.20
2019-03-23T00:13:41.712Z,6.20
2019-03-23T00:14:41.731Z,6.19
2019-03-23T00:15:41.740Z,6.28
2019-03-23T00:16:41.759Z,6.22
2019-03-23T00:17:41.770Z,6.26
2019-03-23T00:18:41.786Z,6.26
2019-03-23T00:19:41.801Z,6.28
2019-03-23T00:20:41.815Z,6.16
2019-03-23T00:21:41.830Z,6.15
2019-03-23T00:22:41.844Z,6.16
2019-03-23T00:23:41.862Z,6.22
2019-03-23T00:24:41.874Z,6.15
2019-03-23T00:25:41.886Z,6.16
2019-03-23T00:26:41.906Z,6.20
2019-03-23T00:27:41.915Z,6.16
2019-03-23T00:28:41.933Z,6.25
2019-03-23T00:29:41.945Z,6.20
2019-03-23T00:30:41.959Z,6.16
2019-03-23T00:31:41.974Z,6.15
2019-03-23T00:32:41.991Z,6.19
2019-03-23T00:33:42.008Z,6.13
2019-03-23T00:34:42.019Z,6.16
2019-03-23T00:35:42.034Z,6.15
2019-03-23T00:36:42.085Z,6.09
2019-03-23T00:37:42.063Z,6.13
2019-03-23T00:38:42.077Z,6.15
2019-03-23T00:39:42.093Z,6.10
2019-03-23T00:40:42.106Z,6.01
2019-03-23T00:41:42.122Z,6.05
2019-03-23T00:42:42.136Z,6.02
2019-03-23T00:43:42.150Z,6.05
2019-03-23T00:44:42.166Z,6.06
2019-03-23T00:45:42.182Z,6.01
2019-03-23T00:46:42.196Z,6.05
2019-03-23T00:47:42.211Z,6.05
2019-03-23T00:48:42.226Z,5.97
2019-03-23T00:49:42.238Z,6.06
2019-03-23T00:50:42.253Z,6.06
2019-03-23T00:51:42.268Z,6.06
2019-03-23T00:52:42.280Z,6.01
2019-03-23T00:53:42.295Z,6.07
2019-03-23T00:54:42.324Z,6.07
2019-03-23T00:55:42.383Z,6.10
2019-03-23T00:56:42.405Z,6.07
2019-03-23T00:57:42.404Z,5.92
2019-03-23T00:58:42.400Z,5.97
2019-03-23T00:59:42.466Z,6.05
2019-03-23T01:00:42.454Z,5.94
2019-03-23T01:01:42.477Z,5.99
2019-03-23T01:02:42.470Z,6.05
2019-03-23T01:03:42.456Z,6.01
2019-03-23T01:04:42.462Z,5.95
2019-03-23T01:05:42.479Z,5.98
2019-03-23T01:06:51.788Z,5.99
2019-03-23T01:07:42.501Z,5.91
2019-03-23T01:08:42.513Z,5.98
2019-03-23T01:09:42.531Z,5.91
2019-03-23T01:10:42.544Z,5.84
2019-03-23T01:11:42.555Z,5.98
2019-03-23T01:12:42.571Z,5.91
2019-03-23T01:13:42.585Z,5.84
2019-03-23T01:14:42.601Z,5.94
2019-03-23T01:15:42.615Z,5.95
2019-03-23T01:16:42.631Z,5.90
2019-03-23T01:17:42.644Z,5.95
2019-03-23T01:18:42.659Z,5.88
2019-03-23T01:19:42.670Z,5.94
2019-03-23T01:20:49.588Z,5.87
2019-03-23T01:21:42.705Z,5.84
2019-03-23T01:22:42.718Z,5.92
2019-03-23T01:23:42.729Z,5.87
2019-03-23T01:24:42.748Z,5.92
2019-03-23T01:25:42.760Z,5.90
2019-03-23T01:26:42.775Z,5.80
2019-03-23T01:27:42.789Z,5.87
2019-03-23T01:28:42.800Z,5.88
2019-03-23T01:29:42.818Z,5.79
2019-03-23T01:30:42.831Z,5.90
2019-03-23T01:31:42.846Z,5.79
2019-03-23T01:32:42.860Z,5.76
2019-03-23T01:33:42.876Z,5.79
2019-03-23T01:34:42.890Z,5.81
2019-03-23T01:35:42.903Z,5.81
2019-03-23T01:36:42.921Z,5.92
2019-03-23T01:37:42.936Z,5.88
2019-03-23T01:38:42.947Z,5.97
2019-03-23T01:39:42.961Z,5.90
2019-03-23T01:40:42.981Z,5.87
2019-03-23T01:41:42.991Z,5.92
2019-03-23T01:42:43.007Z,5.94
2019-03-23T01:43:43.020Z,5.87
2019-03-23T01:44:43.034Z,5.88
2019-03-23T01:45:43.048Z,5.91
2019-03-23T01:46:43.064Z,5.90
2019-03-23T01:47:43.087Z,5.88
2019-03-23T01:48:43.094Z,5.94
2019-03-23T01:49:43.107Z,5.90
2019-03-23T01:50:43.123Z,6.02
2019-03-23T01:51:43.136Z,5.94
2019-03-23T01:52:43.152Z,6.07
2019-03-23T01:53:43.166Z,6.13
2019-03-23T01:54:43.182Z,6.05
2019-03-23T01:55:43.194Z,6.09
2019-03-23T01:56:43.211Z,6.02
2019-03-23T01:57:43.224Z,6.07
2019-03-23T01:58:43.240Z,6.07
2019-03-23T01:59:43.254Z,6.01
2019-03-23T02:00:43.268Z,6.01
2019-03-23T02:01:43.283Z,6.06
2019-03-23T02:02:43.298Z,6.01
2019-03-23T02:03:43.310Z,6.05
2019-03-23T02:04:43.325Z,6.12
2019-03-23T02:05:43.343Z,6.19
2019-03-23T02:06:43.356Z,6.09
2019-03-23T02:07:43.372Z,6.19
2019-03-23T02:08:43.387Z,6.13
2019-03-23T02:09:43.402Z,6.16
2019-03-23T02:10:43.414Z,6.16
2019-03-23T02:11:43.431Z,6.20
2019-03-23T02:12:43.446Z,6.20
2019-03-23T02:13:43.461Z,6.15
2019-03-23T02:14:43.478Z,6.20
2019-03-23T02:15:43.490Z,6.19
2019-03-23T02:16:43.504Z,6.25
2019-03-23T02:17:43.520Z,6.28
2019-03-23T02:18:43.536Z,6.19
2019-03-23T02:19:43.549Z,6.31
2019-03-23T02:20:43.566Z,6.19
2019-03-23T02:21:43.578Z,6.22
2019-03-23T02:22:43.596Z,6.25
2019-03-23T02:23:43.661Z,6.22
2019-03-23T02:24:43.622Z,6.17
2019-03-23T02:25:43.639Z,6.13
2019-03-23T02:26:43.657Z,6.28
2019-03-23T02:27:43.667Z,6.20
2019-03-23T02:28:43.682Z,6.26
2019-03-23T02:29:43.695Z,6.29
2019-03-23T02:30:43.711Z,6.32
2019-03-23T02:31:43.728Z,6.25
2019-03-23T02:32:43.741Z,6.31
2019-03-23T02:33:43.760Z,6.28
2019-03-23T02:34:43.783Z,6.26
2019-03-23T02:35:43.787Z,6.20
2019-03-23T02:36:43.805Z,6.25
2019-03-23T02:37:43.827Z,6.26
2019-03-23T02:38:43.836Z,6.32
2019-03-23T02:39:43.847Z,6.28
2019-03-23T02:40:43.866Z,6.28
2019-03-23T02:41:43.875Z,6.26
2019-03-23T02:42:43.899Z,6.35
2019-03-23T02:43:43.908Z,6.35
2019-03-23T02:44:43.925Z,6.46
2019-03-23T02:45:43.936Z,6.41
2019-03-23T02:46:43.956Z,6.39
2019-03-23T02:47:43.977Z,6.44
2019-03-23T02:48:43.981Z,6.43
2019-03-23T02:49:43.999Z,6.44
2019-03-23T02:50:44.013Z,6.43
2019-03-23T02:51:44.026Z,6.41
2019-03-23T02:52:44.045Z,6.50
2019-03-23T02:53:44.057Z,6.49
2019-03-23T02:54:44.076Z,6.46
2019-03-23T02:55:44.092Z,6.44
2019-03-23T02:56:44.100Z,6.46
2019-03-23T02:57:44.118Z,6.52
2019-03-23T02:58:44.131Z,6.49
2019-03-23T02:59:44.144Z,6.44
2019-03-23T03:00:44.173Z,6.49
2019-03-23T03:01:44.242Z,6.46
2019-03-23T03:02:44.258Z,6.49
2019-03-23T03:03:44.270Z,6.44
2019-03-23T03:04:44.244Z,6.47
2019-03-23T03:05:44.322Z,6.49
2019-03-23T03:06:44.312Z,6.46
2019-03-23T03:07:44.306Z,6.47
2019-03-23T03:08:44.299Z,6.47
2019-03-23T03:09:44.305Z,6.49
2019-03-23T03:10:44.310Z,6.46
2019-03-23T03:11:44.322Z,6.43
2019-03-23T03:12:44.351Z,6.49
2019-03-23T03:13:44.358Z,6.49
2019-03-23T03:14:44.373Z,6.50
2019-03-23T03:15:44.388Z,6.47
2019-03-23T03:16:44.406Z,6.46
2019-03-23T03:17:44.415Z,6.44
2019-03-23T03:18:44.434Z,6.46
2019-03-23T03:19:44.443Z,6.47
2019-03-23T03:20:44.461Z,6.46
2019-03-23T03:21:44.482Z,6.46
2019-03-23T03:22:44.491Z,6.49
2019-03-23T03:23:44.507Z,6.47
2019-03-23T03:24:44.521Z,6.50
2019-03-23T03:25:44.535Z,6.53
2019-03-23T03:26:44.548Z,6.53
2019-03-23T03:27:44.572Z,6.49
2019-03-23T03:28:44.588Z,6.43
2019-03-23T03:29:44.601Z,6.46
2019-03-23T03:30:44.613Z,6.47
2019-03-23T03:31:44.627Z,6.43
2019-03-23T03:32:44.644Z,6.46
2019-03-23T03:33:44.656Z,6.52
2019-03-23T03:34:44.676Z,6.43
2019-03-23T03:35:44.685Z,6.43
2019-03-23T03:36:44.706Z,6.47
2019-03-23T03:37:55.735Z,6.49
2019-03-23T03:38:44.731Z,6.41
2019-03-23T03:39:44.746Z,6.49
2019-03-23T03:40:44.762Z,6.41
2019-03-23T03:41:44.775Z,6.39
2019-03-23T03:42:44.789Z,6.44
2019-03-23T03:43:44.807Z,6.44
2019-03-23T03:44:44.820Z,6.38
2019-03-23T03:45:44.833Z,6.47
2019-03-23T03:46:44.853Z,6.49
2019-03-23T03:47:44.865Z,6.39
2019-03-23T03:48:44.879Z,6.38
2019-03-23T03:49:44.894Z,6.47
2019-03-23T03:50:44.910Z,6.39
2019-03-23T03:51:44.925Z,6.39
2019-03-23T03:52:44.938Z,6.43
2019-03-23T03:53:44.969Z,6.47
2019-03-23T03:54:44.972Z,6.43
2019-03-23T03:55:44.984Z,6.43
2019-03-23T03:56:45.001Z,6.34
2019-03-23T03:57:45.016Z,6.43
2019-03-23T03:58:45.031Z,6.39
2019-03-23T03:59:45.045Z,6.41
2019-03-23T04:00:45.058Z,6.36
2019-03-23T04:01:45.080Z,6.36
2019-03-23T04:02:45.090Z,6.29
2019-03-23T04:03:45.109Z,6.28
2019-03-23T04:04:45.117Z,6.39
2019-03-23T04:05:45.135Z,6.28
2019-03-23T04:06:45.151Z,6.26
2019-03-23T04:07:45.166Z,6.26
2019-03-23T04:08:45.186Z,6.31
2019-03-23T04:09:45.198Z,6.32
2019-03-23T04:10:45.216Z,6.26
2019-03-23T04:11:45.230Z,6.22
2019-03-23T04:12:45.252Z,6.32
2019-03-23T04:13:45.255Z,6.25
2019-03-23T04:14:45.269Z,6.29
2019-03-23T04:15:45.354Z,6.28
2019-03-23T04:16:45.300Z,6.34
2019-03-23T04:17:45.317Z,6.22
2019-03-23T04:18:45.329Z,6.16
2019-03-23T04:19:45.344Z,6.29
2019-03-23T04:20:45.358Z,6.25
2019-03-23T04:21:45.378Z,6.20
2019-03-23T04:22:45.392Z,6.29
2019-03-23T04:23:45.406Z,6.17
2019-03-23T04:24:45.423Z,6.19
2019-03-23T04:25:45.435Z,6.25
2019-03-23T04:26:45.458Z,6.13
2019-03-23T04:27:45.466Z,6.22
2019-03-23T04:28:45.480Z,6.22
2019-03-23T04:29:45.498Z,6.16
2019-03-23T04:30:45.509Z,6.17
2019-03-23T04:31:45.524Z,6.16
2019-03-23T04:32:45.543Z,6.20
2019-03-23T04:33:45.558Z,6.22
2019-03-23T04:34:45.569Z,6.19
2019-03-23T04:35:45.584Z,6.16
2019-03-23T04:36:45.601Z,6.22
2019-03-23T04:37:45.614Z,6.15
2019-03-23T04:38:45.629Z,6.16
2019-03-23T04:39:45.642Z,6.16
2019-03-23T04:40:45.657Z,6.16
2019-03-23T04:41:45.675Z,6.09
2019-03-23T04:42:45.688Z,6.13
2019-03-23T04:43:45.701Z,6.10
2019-03-23T04:44:45.715Z,6.09
2019-03-23T04:45:45.730Z,6.07
2019-03-23T04:46:45.746Z,6.02
2019-03-23T04:47:45.761Z,6.07
2019-03-23T04:48:45.776Z,6.01
2019-03-23T04:49:45.791Z,6.02
2019-03-23T04:50:45.811Z,6.01
2019-03-23T04:51:45.820Z,6.05
2019-03-23T04:52:45.836Z,6.10
2019-03-23T04:53:45.849Z,6.06
2019-03-23T04:54:45.864Z,6.01
2019-03-23T04:55:45.879Z,6.07
2019-03-23T04:56:45.896Z,5.99
2019-03-23T04:57:45.908Z,6.05
2019-03-23T04:58:45.923Z,5.98
2019-03-23T04:59:45.939Z,5.99
2019-03-23T05:00:45.958Z,6.02
2019-03-23T05:01:45.967Z,5.91
2019-03-23T05:02:45.981Z,5.99
2019-03-23T05:03:46.000Z,5.92
2019-03-23T05:04:46.035Z,5.90
2019-03-23T05:05:46.092Z,5.84
2019-03-23T05:06:46.093Z,5.95
2019-03-23T05:07:46.093Z,5.94
2019-03-23T05:08:46.149Z,5.91
2019-03-23T05:09:46.160Z,5.92
2019-03-23T05:10:46.155Z,5.87
2019-03-23T05:11:46.150Z,5.81
2019-03-23T05:12:46.153Z,5.87
2019-03-23T05:13:46.156Z,5.80
2019-03-23T05:14:46.185Z,5.76
2019-03-23T05:15:46.175Z,5.83
2019-03-23T05:16:46.188Z,5.76
2019-03-23T05:17:46.204Z,5.73
2019-03-23T05:18:46.217Z,5.73
2019-03-23T05:19:46.233Z,5.81
2019-03-23T05:20:46.247Z,5.80
2019-03-23T05:21:46.277Z,5.76
2019-03-23T05:22:46.277Z,5.72
2019-03-23T05:23:46.292Z,5.76
2019-03-23T05:24:46.304Z,5.70
2019-03-23T05:25:46.318Z,5.72
2019-03-23T05:26:46.333Z,5.76
2019-03-23T05:27:46.348Z,5.72
2019-03-23T05:28:46.365Z,5.64
2019-03-23T05:29:46.377Z,5.72
2019-03-23T05:30:46.392Z,5.67
2019-03-23T05:31:46.407Z,5.64
2019-03-23T05:32:46.426Z,5.58
2019-03-23T05:33:46.436Z,5.59
2019-03-23T05:34:46.453Z,5.64
2019-03-23T05:35:46.465Z,5.61
2019-03-23T05:36:46.479Z,5.56
2019-03-23T05:37:46.497Z,5.61
2019-03-23T05:38:46.509Z,5.65
2019-03-23T05:39:46.522Z,5.58
2019-03-23T05:40:46.539Z,5.62
2019-03-23T05:41:46.551Z,5.62
2019-03-23T05:42:46.568Z,5.67
2019-03-23T05:43:46.579Z,5.65
2019-03-23T05:44:46.596Z,5.61
2019-03-23T05:45:46.611Z,5.65
2019-03-23T05:46:46.627Z,5.62
2019-03-23T05:47:46.638Z,5.55
2019-03-23T05:48:46.654Z,5.62
2019-03-23T05:49:46.668Z,5.59
2019-03-23T05:50:46.684Z,5.73
2019-03-23T05:51:46.696Z,5.61
2019-03-23T05:52:46.713Z,5.65
2019-03-23T05:53:46.726Z,5.69
2019-03-23T05:54:46.742Z,5.61
2019-03-23T05:55:46.772Z,5.72
2019-03-23T05:56:46.770Z,5.67
2019-03-23T05:57:46.786Z,5.69
2019-03-23T05:58:46.801Z,5.58
2019-03-23T05:59:46.816Z,5.59
2019-03-23T06:00:46.829Z,5.72
2019-03-23T06:01:46.844Z,5.62
2019-03-23T06:02:46.858Z,5.73
2019-03-23T06:03:46.874Z,5.62
2019-03-23T06:04:46.892Z,5.67
2019-03-23T06:05:46.903Z,5.64
2019-03-23T06:06:46.917Z,5.72
2019-03-23T06:07:46.931Z,5.64
2019-03-23T06:08:54.548Z,5.73
2019-03-23T06:09:46.962Z,5.77
2019-03-23T06:10:46.976Z,5.74
2019-03-23T06:11:46.992Z,5.76
2019-03-23T06:12:47.006Z,5.74
2019-03-23T06:13:47.025Z,5.73
2019-03-23T06:14:47.035Z,5.77
2019-03-23T06:15:47.051Z,5.76
2019-03-23T06:16:47.065Z,5.77
2019-03-23T06:17:47.077Z,5.80
2019-03-23T06:18:47.095Z,5.83
2019-03-23T06:19:47.108Z,5.83
2019-03-23T06:20:47.122Z,5.90
2019-03-23T06:21:47.142Z,5.79
2019-03-23T06:22:47.151Z,5.90
2019-03-23T06:23:47.169Z,5.91
2019-03-23T06:24:47.181Z,5.91
2019-03-23T06:25:47.196Z,5.99
2019-03-23T06:26:47.212Z,5.99
2019-03-23T06:27:47.226Z,5.94
2019-03-23T06:28:47.243Z,6.12
2019-03-23T06:29:47.255Z,6.05
2019-03-23T06:30:47.272Z,6.01
2019-03-23T06:31:47.290Z,6.05
2019-03-23T06:32:47.303Z,6.16
2019-03-23T06:33:47.319Z,6.17
2019-03-23T06:34:47.332Z,6.13
2019-03-23T06:35:47.347Z,6.16
2019-03-23T06:36:47.362Z,6.22
2019-03-23T06:37:47.375Z,6.19
2019-03-23T06:38:47.389Z,6.28
2019-03-23T06:39:47.411Z,6.28
2019-03-23T06:40:47.420Z,6.34
2019-03-23T06:41:47.440Z,6.39
2019-03-23T06:42:47.454Z,6.43
2019-03-23T06:43:47.469Z,6.46
2019-03-23T06:44:47.480Z,6.47
2019-03-23T06:45:47.496Z,6.50
2019-03-23T06:46:47.515Z,6.60
2019-03-23T06:47:47.526Z,6.57
2019-03-23T06:48:47.545Z,6.74
2019-03-23T06:49:47.559Z,6.64
2019-03-23T06:50:47.573Z,6.74
2019-03-23T06:51:47.588Z,6.72
2019-03-23T06:52:47.604Z,6.77
2019-03-23T06:53:47.620Z,6.78
2019-03-23T06:54:47.636Z,6.86
2019-03-23T06:55:47.654Z,6.90
2019-03-23T06:56:47.664Z,6.95
2019-03-23T06:57:47.680Z,7.04
2019-03-23T06:58:47.698Z,7.10
2019-03-23T06:59:47.712Z,7.08
2019-03-23T07:00:47.730Z,7.18
2019-03-23T07:01:47.744Z,7.22
2019-03-23T07:02:47.759Z,7.19
2019-03-23T07:03:47.775Z,7.23
2019-03-23T07:04:47.789Z,7.22
2019-03-23T07:05:47.806Z,7.28
2019-03-23T07:06:47.876Z,7.26
2019-03-23T07:07:47.836Z,7.39
2019-03-23T07:08:47.868Z,7.33
2019-03-23T07:09:47.943Z,7.44
2019-03-23T07:10:47.934Z,7.47
2019-03-23T07:11:47.948Z,7.47
2019-03-23T07:12:47.940Z,7.50
2019-03-23T07:13:48.012Z,7.56
2019-03-23T07:14:48.008Z,7.50
2019-03-23T07:15:47.999Z,7.64
2019-03-23T07:16:48.014Z,7.61
2019-03-23T07:17:48.000Z,7.66
2019-03-23T07:18:48.014Z,7.61
2019-03-23T07:19:48.029Z,7.67
2019-03-23T07:20:48.047Z,7.80
2019-03-23T07:21:48.062Z,7.85
2019-03-23T07:22:48.080Z,7.87
2019-03-23T07:23:48.095Z,8.05
2019-03-23T07:24:48.110Z,8.21
2019-03-23T07:25:48.126Z,8.26
2019-03-23T07:26:48.145Z,8.38
2019-03-23T07:27:48.159Z,8.45
2019-03-23T07:28:48.180Z,8.63
2019-03-23T07:29:48.258Z,8.61
2019-03-23T07:30:48.214Z,8.71
2019-03-23T07:31:48.225Z,8.77
2019-03-23T07:32:48.243Z,8.99
2019-03-23T07:33:48.259Z,8.99
2019-03-23T07:34:48.276Z,9.09
2019-03-23T07:35:48.297Z,9.03
2019-03-23T07:36:48.313Z,9.18
2019-03-23T07:37:48.334Z,9.36
2019-03-23T07:38:48.346Z,9.31
2019-03-23T07:39:48.359Z,9.44
2019-03-23T07:40:48.380Z,9.56
2019-03-23T07:41:48.397Z,9.72
2019-03-23T07:42:48.413Z,9.77
2019-03-23T07:43:48.431Z,9.91
2019-03-23T07:44:48.444Z,9.99
2019-03-23T07:45:48.465Z,10.00
2019-03-23T07:46:48.482Z,10.00
2019-03-23T07:47:48.499Z,10.07
2019-03-23T07:48:48.516Z,10.07
2019-03-23T07:49:48.533Z,10.02
2019-03-23T07:50:48.558Z,9.97
2019-03-23T07:51:48.568Z,9.95
2019-03-23T07:52:48.585Z,9.97
2019-03-23T07:53:48.603Z,10.00
2019-03-23T07:54:48.622Z,9.99
2019-03-23T07:55:48.642Z,9.95
2019-03-23T07:56:48.659Z,9.97
2019-03-23T07:57:48.677Z,9.91
2019-03-23T07:58:48.694Z,10.00
2019-03-23T07:59:48.709Z,9.95
2019-03-23T08:00:48.730Z,9.95
2019-03-23T08:01:48.745Z,9.94
2019-03-23T08:02:48.763Z,10.00
2019-03-23T08:03:48.784Z,9.99
2019-03-23T08:04:48.799Z,9.99
2019-03-23T08:05:48.818Z,10.06
2019-03-23T08:06:48.835Z,10.15
2019-03-23T08:07:48.855Z,10.12
2019-03-23T08:08:48.873Z,10.12
2019-03-23T08:09:48.891Z,10.23
2019-03-23T08:10:48.904Z,10.09
2019-03-23T08:11:48.923Z,10.21
2019-03-23T08:12:48.944Z,10.25
2019-03-23T08:13:48.960Z,10.25
2019-03-23T08:14:48.979Z,10.27
2019-03-23T08:15:49.000Z,10.39
2019-03-23T08:16:49.016Z,10.33
2019-03-23T08:17:49.039Z,10.30
2019-03-23T08:18:49.054Z,10.42
2019-03-23T08:19:49.070Z,10.45
2019-03-23T08:20:49.093Z,10.58
2019-03-23T08:21:49.110Z,10.67
2019-03-23T08:22:49.126Z,10.76
2019-03-23T08:23:49.143Z,10.79
2019-03-23T08:24:49.159Z,10.80
2019-03-23T08:25:49.179Z,10.83
2019-03-23T08:26:49.199Z,10.83
2019-03-23T08:27:49.214Z,10.90
2019-03-23T08:28:49.236Z,11.00
2019-03-23T08:29:49.252Z,11.00
2019-03-23T08:30:49.269Z,11.05
2019-03-23T08:31:49.287Z,11.13
2019-03-23T08:32:49.307Z,11.16
2019-03-23T08:33:49.327Z,11.23
2019-03-23T08:34:49.343Z,11.27
2019-03-23T08:35:49.362Z,11.34
2019-03-23T08:36:49.382Z,11.35
2019-03-23T08:37:49.404Z,11.44
2019-03-23T08:38:51.608Z,11.43
2019-03-23T08:39:49.436Z,11.48
2019-03-23T08:40:49.456Z,11.56
2019-03-23T08:41:49.473Z,11.71
2019-03-23T08:42:49.494Z,11.80
2019-03-23T08:43:49.511Z,11.76
2019-03-23T08:44:49.531Z,11.83
2019-03-23T08:45:49.550Z,11.85
2019-03-23T08:46:49.587Z,11.96
2019-03-23T08:47:49.592Z,11.88
2019-03-23T08:48:49.605Z,11.95
2019-03-23T08:49:49.625Z,12.10
2019-03-23T08:50:49.646Z,12.07
2019-03-23T08:51:49.663Z,12.08
2019-03-23T08:52:49.684Z,12.12
2019-03-23T08:53:49.702Z,12.21
2019-03-23T08:54:49.811Z,12.25
2019-03-23T08:55:49.812Z,12.33
2019-03-23T08:56:49.838Z,12.32
2019-03-23T08:57:49.808Z,12.35
2019-03-23T08:58:49.828Z,12.40
2019-03-23T08:59:49.880Z,12.47
2019-03-23T09:00:49.874Z,12.55
2019-03-23T09:01:49.869Z,12.54
2019-03-23T09:02:49.874Z,12.66
2019-03-23T09:03:52.616Z,12.73
2019-03-23T09:04:49.912Z,12.63
2019-03-23T09:05:49.930Z,12.73
2019-03-23T09:06:49.950Z,12.78
2019-03-23T09:07:52.375Z,12.75
2019-03-23T09:08:49.988Z,12.80
2019-03-23T09:09:58.901Z,12.80
2019-03-23T09:10:50.030Z,12.84
2019-03-23T09:11:50.047Z,12.95
2019-03-23T09:12:50.068Z,12.98
2019-03-23T09:13:50.088Z,12.99
2019-03-23T09:14:50.105Z,13.08
2019-03-23T09:15:50.123Z,13.01
2019-03-23T09:16:50.144Z,13.21
2019-03-23T09:17:50.164Z,13.08
2019-03-23T09:18:50.186Z,13.13
2019-03-23T09:19:50.203Z,13.28
2019-03-23T09:20:50.223Z,13.20
2019-03-23T09:21:50.242Z,13.39
2019-03-23T09:22:50.264Z,13.33
2019-03-23T09:23:50.281Z,13.37
2019-03-23T09:24:50.312Z,13.45
2019-03-23T09:25:50.320Z,13.50
2019-03-23T09:26:50.339Z,13.49
2019-03-23T09:27:50.359Z,13.60
2019-03-23T09:28:50.381Z,13.60
2019-03-23T09:29:50.400Z,13.67
2019-03-23T09:30:50.422Z,13.62
2019-03-23T09:31:50.440Z,13.65
2019-03-23T09:32:50.460Z,13.68
2019-03-23T09:33:50.481Z,13.79
2019-03-23T09:34:50.499Z,13.82
2019-03-23T09:35:50.520Z,13.75
2019-03-23T09:36:50.542Z,13.85
2019-03-23T09:37:50.562Z,13.94
2019-03-23T09:38:50.582Z,13.97
2019-03-23T09:39:50.599Z,13.95
2019-03-23T09:40:50.626Z,14.01
2019-03-23T09:41:50.640Z,14.05
2019-03-23T09:42:50.663Z,14.11
2019-03-23T09:43:50.681Z,14.19
2019-03-23T09:44:50.700Z,14.25
2019-03-23T09:45:50.722Z,14.23
2019-03-23T09:46:50.739Z,14.33
2019-03-23T09:47:50.760Z,14.44
2019-03-23T09:48:50.782Z,14.41
2019-03-23T09:49:50.802Z,14.51
2019-03-23T09:50:50.825Z,14.61
2019-03-23T09:51:50.841Z,14.53
2019-03-23T09:52:50.862Z,14.63
2019-03-23T09:53:50.885Z,14.67
2019-03-23T09:54:50.905Z,14.61
2019-03-23T09:55:50.924Z,14.67
2019-03-23T09:56:50.946Z,14.70
2019-03-23T09:57:50.965Z,14.74
2019-03-23T09:58:50.986Z,14.78
2019-03-23T09:59:51.009Z,14.85
2019-03-23T10:00:51.026Z,14.93
2019-03-23T10:01:51.046Z,14.89
2019-03-23T10:02:51.072Z,14.96
2019-03-23T10:03:51.087Z,14.94
2019-03-23T10:04:51.108Z,15.00
2019-03-23T10:05:51.130Z,14.99
2019-03-23T10:06:51.151Z,15.10
2019-03-23T10:07:51.172Z,15.02
2019-03-23T10:08:51.191Z,15.22
2019-03-23T10:09:51.212Z,15.23
2019-03-23T10:10:51.234Z,15.23
2019-03-23T10:11:51.252Z,15.27
2019-03-23T10:12:51.275Z,15.29
2019-03-23T10:13:51.294Z,15.30
2019-03-23T10:14:51.326Z,15.22
2019-03-23T10:15:51.334Z,15.32
2019-03-23T10:16:51.357Z,15.43
2019-03-23T10:17:51.377Z,15.36
2019-03-23T10:18:51.397Z,15.37
2019-03-23T10:19:51.417Z,15.50
2019-03-23T10:20:51.439Z,15.48
2019-03-23T10:21:51.459Z,15.54
2019-03-23T10:22:51.479Z,15.52
2019-03-23T10:23:51.501Z,15.63
2019-03-23T10:24:51.523Z,15.66
2019-03-23T10:25:51.542Z,15.70
2019-03-23T10:26:52.357Z,15.67
2019-03-23T10:27:51.584Z,15.75
2019-03-23T10:28:51.617Z,15.88
2019-03-23T10:29:51.700Z,15.83
2019-03-23T10:30:51.694Z,15.83
2019-03-23T10:31:51.694Z,15.92
2019-03-23T10:32:51.762Z,15.88
2019-03-23T10:33:51.758Z,15.98
2019-03-23T10:34:51.760Z,16.00
2019-03-23T10:35:51.754Z,15.99
2019-03-23T10:36:51.770Z,15.99
2019-03-23T10:37:51.792Z,16.06
2019-03-23T10:38:51.816Z,16.10
2019-03-23T10:39:51.833Z,16.21
2019-03-23T10:40:51.856Z,16.16
2019-03-23T10:41:51.876Z,16.25
2019-03-23T10:42:51.901Z,16.24
2019-03-23T10:43:51.918Z,16.29
2019-03-23T10:44:51.940Z,16.39
2019-03-23T10:45:51.961Z,16.36
2019-03-23T10:46:51.980Z,16.31
2019-03-23T10:47:52.190Z,16.39
2019-03-23T10:48:52.024Z,16.46
2019-03-23T10:49:52.050Z,16.43
2019-03-23T10:50:52.066Z,16.41
2019-03-23T10:51:52.092Z,16.46
2019-03-23T10:52:52.107Z,16.54
2019-03-23T10:53:52.133Z,16.54
2019-03-23T10:54:52.152Z,16.49
2019-03-23T10:55:52.175Z,16.57
2019-03-23T10:56:52.194Z,16.55
2019-03-23T10:57:52.215Z,16.55
2019-03-23T10:58:52.240Z,16.55
2019-03-23T10:59:52.269Z,16.58
2019-03-23T11:00:52.280Z,16.62
2019-03-23T11:01:52.300Z,16.55
2019-03-23T11:02:52.323Z,16.62
2019-03-23T11:03:52.343Z,16.54
2019-03-23T11:04:52.366Z,16.59
2019-03-23T11:05:52.385Z,16.61
2019-03-23T11:06:52.414Z,16.59
2019-03-23T11:07:52.430Z,16.64
2019-03-23T11:08:52.450Z,16.62
2019-03-23T11:09:52.471Z,16.62
2019-03-23T11:10:52.492Z,16.64
2019-03-23T11:11:52.513Z,16.66
2019-03-23T11:12:52.539Z,16.59
2019-03-23T11:13:52.556Z,16.68
2019-03-23T11:14:52.580Z,16.61
2019-03-23T11:15:52.601Z,16.69
2019-03-23T11:16:52.621Z,16.73
2019-03-23T11:17:52.643Z,16.74
2019-03-23T11:18:52.663Z,16.80
2019-03-23T11:19:52.684Z,16.79
2019-03-23T11:20:52.707Z,16.82
2019-03-23T11:21:52.728Z,16.73
2019-03-23T11:22:52.751Z,16.73
2019-03-23T11:23:52.773Z,16.72
2019-03-23T11:24:52.793Z,16.76
2019-03-23T11:25:52.815Z,16.77
2019-03-23T11:26:52.836Z,16.82
2019-03-23T11:27:52.857Z,16.83
2019-03-23T11:28:52.878Z,16.87
2019-03-23T11:29:52.910Z,16.84
2019-03-23T11:30:52.923Z,16.87
2019-03-23T11:31:52.948Z,16.91
2019-03-23T11:32:52.966Z,16.94
2019-03-23T11:33:52.986Z,16.98
2019-03-23T11:34:53.030Z,16.95
2019-03-23T11:35:57.746Z,16.95
2019-03-23T11:36:53.055Z,16.92
2019-03-23T11:37:53.250Z,17.01
2019-03-23T11:38:53.100Z,16.91
2019-03-23T11:39:53.120Z,16.95
2019-03-23T11:40:55.273Z,16.95
2019-03-23T11:41:53.160Z,16.95
2019-03-23T11:42:53.185Z,16.97
2019-03-23T11:43:53.204Z,16.95
2019-03-23T11:44:53.274Z,16.94
2019-03-23T11:45:53.248Z,17.02
2019-03-23T11:46:53.279Z,17.01
2019-03-23T11:47:53.293Z,17.01
2019-03-23T11:48:53.316Z,17.04
2019-03-23T11:49:53.335Z,17.01
2019-03-23T11:50:53.361Z,16.99
2019-03-23T11:51:53.379Z,17.04
2019-03-23T11:52:53.399Z,16.99
2019-03-23T11:53:53.425Z,17.10
2019-03-23T11:54:53.445Z,17.05
2019-03-23T11:55:53.465Z,17.14
2019-03-23T11:56:53.488Z,17.16
2019-03-23T11:57:53.578Z,17.07
2019-03-23T11:58:54.066Z,17.12
2019-03-23T11:59:53.598Z,17.14
2019-03-23T12:00:53.656Z,17.01
2019-03-23T12:01:53.658Z,16.99
2019-03-23T12:02:53.651Z,16.98
2019-03-23T12:03:53.657Z,16.97
2019-03-23T12:04:53.665Z,16.87
2019-03-23T12:05:53.685Z,16.91
2019-03-23T12:06:53.709Z,16.87
2019-03-23T12:07:53.733Z,16.65
2019-03-23T12:08:53.750Z,16.68
2019-03-23T12:09:55.950Z,16.61
2019-03-23T12:11:02.527Z,16.51
2019-03-23T12:11:53.816Z,16.46
2019-03-23T12:12:53.836Z,16.47
2019-03-23T12:13:53.863Z,16.34
2019-03-23T12:14:53.882Z,16.34
2019-03-23T12:15:53.900Z,16.21
2019-03-23T12:16:53.923Z,16.22
2019-03-23T12:17:53.944Z,16.18
2019-03-23T12:18:53.968Z,16.21
2019-03-23T12:19:53.990Z,15.99
2019-03-23T12:20:54.009Z,16.05
2019-03-23T12:21:54.034Z,15.87
2019-03-23T12:22:54.055Z,15.67
2019-03-23T12:23:54.077Z,15.51
2019-03-23T12:24:54.096Z,15.48
2019-03-23T12:25:54.118Z,15.30
2019-03-23T12:26:54.138Z,15.29
2019-03-23T12:27:54.158Z,15.08
2019-03-23T12:28:54.187Z,15.04
2019-03-23T12:29:54.201Z,14.94
2019-03-23T12:30:54.222Z,14.87
2019-03-23T12:31:54.243Z,14.68
2019-03-23T12:32:54.266Z,14.68
2019-03-23T12:33:54.285Z,14.62
2019-03-23T12:34:54.311Z,14.56
2019-03-23T12:35:54.324Z,14.59
2019-03-23T12:36:54.350Z,14.51
2019-03-23T12:37:54.371Z,14.45
2019-03-23T12:38:54.390Z,14.45
2019-03-23T12:39:54.411Z,14.43
2019-03-23T12:40:54.433Z,14.36
2019-03-23T12:41:54.452Z,14.23
2019-03-23T12:42:54.474Z,14.28
2019-03-23T12:43:54.498Z,14.20
2019-03-23T12:44:54.512Z,14.16
2019-03-23T12:45:54.533Z,14.15
2019-03-23T12:46:54.553Z,14.11
2019-03-23T12:47:54.576Z,14.05
2019-03-23T12:48:54.592Z,13.98
2019-03-23T12:49:54.619Z,13.95
2019-03-23T12:50:54.641Z,13.94
2019-03-23T12:51:54.655Z,13.94
2019-03-23T12:52:54.676Z,13.91
2019-03-23T12:53:54.696Z,13.85
2019-03-23T12:54:54.717Z,13.86
2019-03-23T12:55:54.738Z,13.76
2019-03-23T12:56:54.754Z,13.83
2019-03-23T12:57:54.777Z,13.82
2019-03-23T12:58:54.799Z,13.80
2019-03-23T12:59:54.816Z,13.83
2019-03-23T13:00:54.836Z,13.78
2019-03-23T13:01:54.857Z,13.79
2019-03-23T13:02:54.880Z,13.80
2019-03-23T13:03:54.899Z,13.67
2019-03-23T13:04:54.926Z,13.64
2019-03-23T13:05:54.947Z,13.64
2019-03-23T13:06:54.960Z,13.67
2019-03-23T13:07:54.980Z,13.61
2019-03-23T13:08:54.999Z,13.64